sensor_id;sensor_type;location;lat;lon;timestamp;P1;durP1;ratioP1;P2;durP2;ratioP2
40695;SDS011;40425;51.102;17.208;2023-05-14T00:01:10;9.80;;;6.03;;
40695;SDS011;40425;51.102;17.208;2023-05-14T00:06:11;9.83;;;7.23;;
40695;SDS011;40425;51.102;17.208;2023-05-14T00:11:12;10.18;;;6.97;;
40695;SDS011;40425;51.102;17.208;2023-05-14T00:16:13;11.88;;;6.93;;
40695;SDS011;40425;51.102;17.208;2023-05-14T00:21:13;12.33;;;6.80;;
40695;SDS011;40425;51.102;17.208;2023-05-14T00:26:14;15.73;;;7.32;;
40695;SDS011;40425;51.102;17.208;2023-05-14T00:31:15;11.67;;;7.47;;
40695;SDS011;40425;51.102;17.208;2023-05-14T00:36:16;13.95;;;7.05;;
40695;SDS011;40425;51.102;17.208;2023-05-14T00:41:17;10.70;;;6.63;;
40695;SDS011;40425;51.102;17.208;2023-05-14T00:46:18;10.50;;;7.07;;
40695;SDS011;40425;51.102;17.208;2023-05-14T00:51:19;11.90;;;6.63;;
40695;SDS011;40425;51.102;17.208;2023-05-14T00:56:21;9.07;;;6.32;;
40695;SDS011;40425;51.102;17.208;2023-05-14T01:01:22;18.83;;;7.40;;
40695;SDS011;40425;51.102;17.208;2023-05-14T01:06:28;11.80;;;7.10;;
40695;SDS011;40425;51.102;17.208;2023-05-14T01:11:55;9.45;;;5.95;;
40695;SDS011;40425;51.102;17.208;2023-05-14T01:17:03;11.63;;;6.65;;
40695;SDS011;40425;51.102;17.208;2023-05-14T01:22:05;9.95;;;5.90;;
40695;SDS011;40425;51.102;17.208;2023-05-14T01:32:14;9.88;;;6.68;;
40695;SDS011;40425;51.102;17.208;2023-05-14T01:37:17;7.32;;;5.38;;
40695;SDS011;40425;51.102;17.208;2023-05-14T01:42:19;10.93;;;5.68;;
40695;SDS011;40425;51.102;17.208;2023-05-14T01:47:20;9.40;;;5.70;;
40695;SDS011;40425;51.102;17.208;2023-05-14T01:52:20;7.50;;;5.68;;
40695;SDS011;40425;51.102;17.208;2023-05-14T01:57:21;8.27;;;5.63;;
40695;SDS011;40425;51.102;17.208;2023-05-14T02:02:22;9.13;;;5.47;;
40695;SDS011;40425;51.102;17.208;2023-05-14T02:07:23;12.13;;;5.88;;
40695;SDS011;40425;51.102;17.208;2023-05-14T02:12:24;8.18;;;5.03;;
40695;SDS011;40425;51.102;17.208;2023-05-14T02:17:25;8.25;;;5.38;;
40695;SDS011;40425;51.102;17.208;2023-05-14T02:22:26;10.38;;;5.50;;
40695;SDS011;40425;51.102;17.208;2023-05-14T02:27:27;9.60;;;5.53;;
40695;SDS011;40425;51.102;17.208;2023-05-14T02:32:28;10.00;;;5.75;;
40695;SDS011;40425;51.102;17.208;2023-05-14T02:37:28;6.83;;;5.10;;
40695;SDS011;40425;51.102;17.208;2023-05-14T02:42:30;9.63;;;4.83;;
40695;SDS011;40425;51.102;17.208;2023-05-14T02:47:31;9.35;;;5.50;;
40695;SDS011;40425;51.102;17.208;2023-05-14T02:52:32;8.02;;;5.50;;
40695;SDS011;40425;51.102;17.208;2023-05-14T02:57:32;8.80;;;5.93;;
40695;SDS011;40425;51.102;17.208;2023-05-14T03:02:33;9.23;;;6.00;;
40695;SDS011;40425;51.102;17.208;2023-05-14T03:07:34;9.13;;;6.03;;
40695;SDS011;40425;51.102;17.208;2023-05-14T03:12:35;8.97;;;6.53;;
40695;SDS011;40425;51.102;17.208;2023-05-14T03:17:36;12.57;;;7.80;;
40695;SDS011;40425;51.102;17.208;2023-05-14T03:22:37;11.67;;;6.70;;
40695;SDS011;40425;51.102;17.208;2023-05-14T03:27:38;10.75;;;6.55;;
40695;SDS011;40425;51.102;17.208;2023-05-14T03:32:39;12.50;;;7.00;;
40695;SDS011;40425;51.102;17.208;2023-05-14T03:37:40;12.07;;;7.03;;
40695;SDS011;40425;51.102;17.208;2023-05-14T03:42:41;13.32;;;6.70;;
40695;SDS011;40425;51.102;17.208;2023-05-14T03:47:42;9.77;;;7.03;;
40695;SDS011;40425;51.102;17.208;2023-05-14T03:52:42;13.65;;;7.18;;
40695;SDS011;40425;51.102;17.208;2023-05-14T03:57:44;13.10;;;8.25;;
40695;SDS011;40425;51.102;17.208;2023-05-14T04:02:46;11.50;;;7.10;;
40695;SDS011;40425;51.102;17.208;2023-05-14T04:07:47;9.23;;;6.63;;
40695;SDS011;40425;51.102;17.208;2023-05-14T04:12:48;13.13;;;7.22;;
40695;SDS011;40425;51.102;17.208;2023-05-14T04:17:49;11.55;;;6.90;;
40695;SDS011;40425;51.102;17.208;2023-05-14T04:22:50;10.15;;;6.75;;
40695;SDS011;40425;51.102;17.208;2023-05-14T04:27:50;11.05;;;7.38;;
40695;SDS011;40425;51.102;17.208;2023-05-14T04:32:51;11.73;;;7.15;;
40695;SDS011;40425;51.102;17.208;2023-05-14T04:37:52;10.05;;;7.57;;
40695;SDS011;40425;51.102;17.208;2023-05-14T04:42:53;10.45;;;7.35;;
40695;SDS011;40425;51.102;17.208;2023-05-14T04:47:54;13.10;;;7.25;;
40695;SDS011;40425;51.102;17.208;2023-05-14T04:52:54;10.68;;;6.78;;
40695;SDS011;40425;51.102;17.208;2023-05-14T04:57:55;10.20;;;7.20;;
40695;SDS011;40425;51.102;17.208;2023-05-14T05:02:56;10.43;;;6.38;;
40695;SDS011;40425;51.102;17.208;2023-05-14T05:07:57;8.30;;;6.22;;
40695;SDS011;40425;51.102;17.208;2023-05-14T05:12:58;8.52;;;5.88;;
40695;SDS011;40425;51.102;17.208;2023-05-14T05:17:59;8.30;;;5.55;;
40695;SDS011;40425;51.102;17.208;2023-05-14T05:23:00;6.50;;;4.88;;
40695;SDS011;40425;51.102;17.208;2023-05-14T05:28:01;10.95;;;6.82;;
40695;SDS011;40425;51.102;17.208;2023-05-14T05:33:02;7.57;;;5.65;;
40695;SDS011;40425;51.102;17.208;2023-05-14T05:38:03;11.60;;;5.80;;
40695;SDS011;40425;51.102;17.208;2023-05-14T05:43:04;8.48;;;5.10;;
40695;SDS011;40425;51.102;17.208;2023-05-14T05:48:05;6.32;;;4.50;;
40695;SDS011;40425;51.102;17.208;2023-05-14T05:53:06;7.80;;;4.78;;
40695;SDS011;40425;51.102;17.208;2023-05-14T05:58:07;7.35;;;3.78;;
40695;SDS011;40425;51.102;17.208;2023-05-14T06:03:08;5.93;;;4.30;;
40695;SDS011;40425;51.102;17.208;2023-05-14T06:08:09;5.05;;;3.33;;
40695;SDS011;40425;51.102;17.208;2023-05-14T06:13:09;5.22;;;3.22;;
40695;SDS011;40425;51.102;17.208;2023-05-14T06:18:10;6.82;;;3.95;;
40695;SDS011;40425;51.102;17.208;2023-05-14T06:23:11;5.57;;;2.90;;
40695;SDS011;40425;51.102;17.208;2023-05-14T06:28:12;4.30;;;2.25;;
40695;SDS011;40425;51.102;17.208;2023-05-14T06:33:13;3.70;;;2.15;;
40695;SDS011;40425;51.102;17.208;2023-05-14T06:38:14;6.90;;;2.53;;
40695;SDS011;40425;51.102;17.208;2023-05-14T06:43:14;4.13;;;2.13;;
40695;SDS011;40425;51.102;17.208;2023-05-14T06:48:16;5.65;;;2.20;;
40695;SDS011;40425;51.102;17.208;2023-05-14T06:53:20;4.28;;;1.90;;
40695;SDS011;40425;51.102;17.208;2023-05-14T06:58:21;4.05;;;1.20;;
40695;SDS011;40425;51.102;17.208;2023-05-14T07:03:22;6.13;;;2.22;;
40695;SDS011;40425;51.102;17.208;2023-05-14T07:08:23;2.53;;;0.82;;
40695;SDS011;40425;51.102;17.208;2023-05-14T07:13:25;14.85;;;1.10;;
40695;SDS011;40425;51.102;17.208;2023-05-14T07:18:27;2.25;;;0.60;;
40695;SDS011;40425;51.102;17.208;2023-05-14T07:23:28;1.88;;;0.70;;
40695;SDS011;40425;51.102;17.208;2023-05-14T07:28:29;4.60;;;0.70;;
40695;SDS011;40425;51.102;17.208;2023-05-14T07:33:29;2.40;;;0.68;;
40695;SDS011;40425;51.102;17.208;2023-05-14T07:38:30;1.42;;;0.60;;
40695;SDS011;40425;51.102;17.208;2023-05-14T07:43:31;1.48;;;0.50;;
40695;SDS011;40425;51.102;17.208;2023-05-14T07:48:32;1.38;;;0.30;;
40695;SDS011;40425;51.102;17.208;2023-05-14T07:53:33;2.53;;;0.50;;
40695;SDS011;40425;51.102;17.208;2023-05-14T07:58:34;0.88;;;0.38;;
40695;SDS011;40425;51.102;17.208;2023-05-14T08:03:35;2.40;;;0.50;;
40695;SDS011;40425;51.102;17.208;2023-05-14T08:08:36;2.20;;;0.40;;
40695;SDS011;40425;51.102;17.208;2023-05-14T08:13:37;3.00;;;0.40;;
40695;SDS011;40425;51.102;17.208;2023-05-14T08:18:37;0.90;;;0.30;;
40695;SDS011;40425;51.102;17.208;2023-05-14T08:23:39;1.73;;;0.30;;
40695;SDS011;40425;51.102;17.208;2023-05-14T08:28:40;2.90;;;0.20;;
40695;SDS011;40425;51.102;17.208;2023-05-14T08:33:40;0.80;;;0.30;;
40695;SDS011;40425;51.102;17.208;2023-05-14T08:38:41;1.50;;;0.40;;
40695;SDS011;40425;51.102;17.208;2023-05-14T08:43:49;1.48;;;0.57;;
40695;SDS011;40425;51.102;17.208;2023-05-14T08:49:14;1.73;;;0.50;;
40695;SDS011;40425;51.102;17.208;2023-05-14T08:54:19;0.90;;;0.38;;
40695;SDS011;40425;51.102;17.208;2023-05-14T08:59:22;0.80;;;0.25;;
40695;SDS011;40425;51.102;17.208;2023-05-14T09:04:23;2.10;;;0.47;;
40695;SDS011;40425;51.102;17.208;2023-05-14T09:09:25;0.88;;;0.30;;
40695;SDS011;40425;51.102;17.208;2023-05-14T09:14:27;2.38;;;0.30;;
40695;SDS011;40425;51.102;17.208;2023-05-14T09:19:28;0.80;;;0.20;;
40695;SDS011;40425;51.102;17.208;2023-05-14T09:24:29;1.77;;;0.20;;
40695;SDS011;40425;51.102;17.208;2023-05-14T09:29:30;1.02;;;0.22;;
40695;SDS011;40425;51.102;17.208;2023-05-14T09:34:32;2.08;;;0.40;;
40695;SDS011;40425;51.102;17.208;2023-05-14T09:39:35;2.55;;;0.20;;
40695;SDS011;40425;51.102;17.208;2023-05-14T09:44:37;1.02;;;0.22;;
40695;SDS011;40425;51.102;17.208;2023-05-14T09:49:38;1.15;;;0.40;;
40695;SDS011;40425;51.102;17.208;2023-05-14T09:54:39;0.65;;;0.20;;
40695;SDS011;40425;51.102;17.208;2023-05-14T09:59:40;0.80;;;0.20;;
40695;SDS011;40425;51.102;17.208;2023-05-14T10:04:41;0.63;;;0.20;;
40695;SDS011;40425;51.102;17.208;2023-05-14T10:09:44;0.70;;;0.20;;
40695;SDS011;40425;51.102;17.208;2023-05-14T10:14:46;1.77;;;0.30;;
40695;SDS011;40425;51.102;17.208;2023-05-14T10:19:50;0.93;;;0.20;;
40695;SDS011;40425;51.102;17.208;2023-05-14T10:24:53;3.58;;;0.30;;
40695;SDS011;40425;51.102;17.208;2023-05-14T10:29:55;4.55;;;0.30;;
40695;SDS011;40425;51.102;17.208;2023-05-14T10:34:56;1.10;;;0.30;;
40695;SDS011;40425;51.102;17.208;2023-05-14T10:40:01;2.85;;;0.20;;
40695;SDS011;40425;51.102;17.208;2023-05-14T10:45:06;1.90;;;0.40;;
40695;SDS011;40425;51.102;17.208;2023-05-14T10:50:09;2.45;;;0.20;;
40695;SDS011;40425;51.102;17.208;2023-05-14T10:55:12;0.75;;;0.20;;
40695;SDS011;40425;51.102;17.208;2023-05-14T11:00:15;0.77;;;0.30;;
40695;SDS011;40425;51.102;17.208;2023-05-14T11:05:16;29.58;;;2.10;;
40695;SDS011;40425;51.102;17.208;2023-05-14T11:10:18;1.38;;;0.30;;
40695;SDS011;40425;51.102;17.208;2023-05-14T11:15:25;2.05;;;0.20;;
40695;SDS011;40425;51.102;17.208;2023-05-14T11:20:28;1.45;;;0.25;;
40695;SDS011;40425;51.102;17.208;2023-05-14T11:25:29;0.88;;;0.20;;
40695;SDS011;40425;51.102;17.208;2023-05-14T11:30:30;0.95;;;0.30;;
40695;SDS011;40425;51.102;17.208;2023-05-14T11:35:31;1.13;;;0.30;;
40695;SDS011;40425;51.102;17.208;2023-05-14T11:40:32;0.70;;;0.20;;
40695;SDS011;40425;51.102;17.208;2023-05-14T11:45:33;1.52;;;0.30;;
40695;SDS011;40425;51.102;17.208;2023-05-14T11:50:35;3.20;;;0.45;;
40695;SDS011;40425;51.102;17.208;2023-05-14T11:55:36;1.08;;;0.40;;
40695;SDS011;40425;51.102;17.208;2023-05-14T12:00:37;4.28;;;0.50;;
40695;SDS011;40425;51.102;17.208;2023-05-14T12:05:39;2.42;;;0.50;;
40695;SDS011;40425;51.102;17.208;2023-05-14T12:10:40;7.45;;;1.17;;
40695;SDS011;40425;51.102;17.208;2023-05-14T12:15:45;2.00;;;0.93;;
40695;SDS011;40425;51.102;17.208;2023-05-14T12:21:02;1.58;;;0.77;;
40695;SDS011;40425;51.102;17.208;2023-05-14T12:26:05;5.43;;;1.55;;
40695;SDS011;40425;51.102;17.208;2023-05-14T12:31:07;2.92;;;1.13;;
40695;SDS011;40425;51.102;17.208;2023-05-14T12:36:08;3.70;;;1.25;;
40695;SDS011;40425;51.102;17.208;2023-05-14T12:41:09;3.08;;;2.03;;
40695;SDS011;40425;51.102;17.208;2023-05-14T12:46:10;4.13;;;1.55;;
40695;SDS011;40425;51.102;17.208;2023-05-14T12:51:11;3.78;;;1.58;;
40695;SDS011;40425;51.102;17.208;2023-05-14T12:56:12;3.53;;;1.10;;
40695;SDS011;40425;51.102;17.208;2023-05-14T13:01:13;1.98;;;1.05;;
40695;SDS011;40425;51.102;17.208;2023-05-14T13:06:14;3.92;;;1.20;;
40695;SDS011;40425;51.102;17.208;2023-05-14T13:11:15;6.03;;;1.27;;
40695;SDS011;40425;51.102;17.208;2023-05-14T13:16:16;5.20;;;1.15;;
40695;SDS011;40425;51.102;17.208;2023-05-14T13:21:17;2.88;;;0.95;;
40695;SDS011;40425;51.102;17.208;2023-05-14T13:26:18;3.65;;;1.20;;
40695;SDS011;40425;51.102;17.208;2023-05-14T13:31:19;3.20;;;1.20;;
40695;SDS011;40425;51.102;17.208;2023-05-14T13:36:19;3.00;;;1.23;;
40695;SDS011;40425;51.102;17.208;2023-05-14T13:41:20;2.67;;;1.08;;
40695;SDS011;40425;51.102;17.208;2023-05-14T13:46:21;7.20;;;1.98;;
40695;SDS011;40425;51.102;17.208;2023-05-14T13:51:22;4.65;;;1.80;;
40695;SDS011;40425;51.102;17.208;2023-05-14T13:56:23;8.25;;;2.05;;
40695;SDS011;40425;51.102;17.208;2023-05-14T14:01:24;4.20;;;2.00;;
40695;SDS011;40425;51.102;17.208;2023-05-14T14:06:25;6.95;;;1.70;;
40695;SDS011;40425;51.102;17.208;2023-05-14T14:11:26;20.60;;;3.00;;
40695;SDS011;40425;51.102;17.208;2023-05-14T14:16:27;3.08;;;1.17;;
40695;SDS011;40425;51.102;17.208;2023-05-14T14:21:28;2.95;;;1.58;;
40695;SDS011;40425;51.102;17.208;2023-05-14T14:26:30;2.53;;;1.20;;
40695;SDS011;40425;51.102;17.208;2023-05-14T14:31:31;4.30;;;1.77;;
40695;SDS011;40425;51.102;17.208;2023-05-14T14:36:32;5.15;;;1.90;;
40695;SDS011;40425;51.102;17.208;2023-05-14T14:41:32;4.35;;;1.70;;
40695;SDS011;40425;51.102;17.208;2023-05-14T14:46:34;4.50;;;1.38;;
40695;SDS011;40425;51.102;17.208;2023-05-14T14:51:36;1.67;;;0.88;;
40695;SDS011;40425;51.102;17.208;2023-05-14T14:56:37;8.77;;;1.50;;
40695;SDS011;40425;51.102;17.208;2023-05-14T15:01:38;2.83;;;1.40;;
40695;SDS011;40425;51.102;17.208;2023-05-14T15:06:39;3.67;;;1.77;;
40695;SDS011;40425;51.102;17.208;2023-05-14T15:11:40;5.20;;;2.17;;
40695;SDS011;40425;51.102;17.208;2023-05-14T15:16:41;3.50;;;2.22;;
40695;SDS011;40425;51.102;17.208;2023-05-14T15:21:42;3.53;;;2.33;;
40695;SDS011;40425;51.102;17.208;2023-05-14T15:26:43;4.22;;;2.47;;
40695;SDS011;40425;51.102;17.208;2023-05-14T15:31:44;9.82;;;2.33;;
40695;SDS011;40425;51.102;17.208;2023-05-14T15:36:45;8.32;;;2.20;;
40695;SDS011;40425;51.102;17.208;2023-05-14T15:41:46;40.58;;;5.05;;
40695;SDS011;40425;51.102;17.208;2023-05-14T15:46:46;8.63;;;2.83;;
40695;SDS011;40425;51.102;17.208;2023-05-14T15:51:47;72.70;;;5.30;;
40695;SDS011;40425;51.102;17.208;2023-05-14T15:56:48;5.13;;;2.08;;
40695;SDS011;40425;51.102;17.208;2023-05-14T16:01:50;6.88;;;2.97;;
40695;SDS011;40425;51.102;17.208;2023-05-14T16:06:51;4.70;;;2.47;;
40695;SDS011;40425;51.102;17.208;2023-05-14T16:11:51;3.97;;;2.10;;
40695;SDS011;40425;51.102;17.208;2023-05-14T16:16:53;3.15;;;2.50;;
40695;SDS011;40425;51.102;17.208;2023-05-14T16:21:54;5.72;;;2.33;;
40695;SDS011;40425;51.102;17.208;2023-05-14T16:26:55;3.30;;;2.10;;
40695;SDS011;40425;51.102;17.208;2023-05-14T16:31:56;4.32;;;2.40;;
40695;SDS011;40425;51.102;17.208;2023-05-14T16:36:58;3.05;;;2.35;;
40695;SDS011;40425;51.102;17.208;2023-05-14T16:41:58;4.65;;;2.50;;
40695;SDS011;40425;51.102;17.208;2023-05-14T16:46:59;7.00;;;3.30;;
40695;SDS011;40425;51.102;17.208;2023-05-14T16:52:00;9.77;;;3.13;;
40695;SDS011;40425;51.102;17.208;2023-05-14T16:57:01;5.93;;;2.20;;
40695;SDS011;40425;51.102;17.208;2023-05-14T17:02:02;8.60;;;3.67;;
40695;SDS011;40425;51.102;17.208;2023-05-14T17:07:04;6.10;;;3.35;;
40695;SDS011;40425;51.102;17.208;2023-05-14T17:12:05;4.18;;;3.20;;
40695;SDS011;40425;51.102;17.208;2023-05-14T17:17:06;5.20;;;3.42;;
40695;SDS011;40425;51.102;17.208;2023-05-14T17:22:07;4.90;;;3.63;;
40695;SDS011;40425;51.102;17.208;2023-05-14T17:27:08;11.10;;;4.00;;
40695;SDS011;40425;51.102;17.208;2023-05-14T17:32:09;19.38;;;4.15;;
40695;SDS011;40425;51.102;17.208;2023-05-14T17:37:09;14.27;;;3.75;;
40695;SDS011;40425;51.102;17.208;2023-05-14T17:42:10;10.15;;;3.47;;
40695;SDS011;40425;51.102;17.208;2023-05-14T17:47:11;9.18;;;4.03;;
40695;SDS011;40425;51.102;17.208;2023-05-14T17:52:12;33.33;;;5.32;;
40695;SDS011;40425;51.102;17.208;2023-05-14T17:57:13;8.60;;;5.15;;
40695;SDS011;40425;51.102;17.208;2023-05-14T18:02:14;7.90;;;4.45;;
40695;SDS011;40425;51.102;17.208;2023-05-14T18:07:15;9.63;;;4.10;;
40695;SDS011;40425;51.102;17.208;2023-05-14T18:12:17;23.23;;;6.28;;
40695;SDS011;40425;51.102;17.208;2023-05-14T18:17:18;11.98;;;4.80;;
40695;SDS011;40425;51.102;17.208;2023-05-14T18:22:19;9.90;;;4.65;;
40695;SDS011;40425;51.102;17.208;2023-05-14T18:27:20;33.33;;;6.25;;
40695;SDS011;40425;51.102;17.208;2023-05-14T18:32:21;12.27;;;4.55;;
40695;SDS011;40425;51.102;17.208;2023-05-14T18:37:22;10.90;;;3.83;;
40695;SDS011;40425;51.102;17.208;2023-05-14T18:42:23;9.88;;;4.22;;
40695;SDS011;40425;51.102;17.208;2023-05-14T18:47:24;9.00;;;3.85;;
40695;SDS011;40425;51.102;17.208;2023-05-14T18:52:25;4.18;;;3.22;;
40695;SDS011;40425;51.102;17.208;2023-05-14T18:57:26;6.07;;;3.15;;
40695;SDS011;40425;51.102;17.208;2023-05-14T19:02:31;6.97;;;3.08;;
40695;SDS011;40425;51.102;17.208;2023-05-14T19:07:32;5.30;;;3.40;;
40695;SDS011;40425;51.102;17.208;2023-05-14T19:12:33;5.45;;;2.95;;
40695;SDS011;40425;51.102;17.208;2023-05-14T19:17:35;10.60;;;5.05;;
40695;SDS011;40425;51.102;17.208;2023-05-14T19:22:49;9.60;;;3.67;;
40695;SDS011;40425;51.102;17.208;2023-05-14T19:27:52;17.58;;;6.82;;
40695;SDS011;40425;51.102;17.208;2023-05-14T19:32:54;10.00;;;4.32;;
40695;SDS011;40425;51.102;17.208;2023-05-14T19:37:55;7.40;;;2.88;;
40695;SDS011;40425;51.102;17.208;2023-05-14T19:42:55;4.53;;;2.53;;
40695;SDS011;40425;51.102;17.208;2023-05-14T19:47:56;5.10;;;2.28;;
40695;SDS011;40425;51.102;17.208;2023-05-14T19:52:57;5.10;;;2.40;;
40695;SDS011;40425;51.102;17.208;2023-05-14T19:57:59;3.53;;;2.63;;
40695;SDS011;40425;51.102;17.208;2023-05-14T20:03:00;6.55;;;3.20;;
40695;SDS011;40425;51.102;17.208;2023-05-14T20:08:01;5.35;;;4.55;;
40695;SDS011;40425;51.102;17.208;2023-05-14T20:13:05;4.95;;;4.13;;
40695;SDS011;40425;51.102;17.208;2023-05-14T20:18:07;5.68;;;3.30;;
40695;SDS011;40425;51.102;17.208;2023-05-14T20:23:08;3.97;;;3.45;;
40695;SDS011;40425;51.102;17.208;2023-05-14T20:28:09;7.55;;;6.15;;
40695;SDS011;40425;51.102;17.208;2023-05-14T20:33:11;5.78;;;4.15;;
40695;SDS011;40425;51.102;17.208;2023-05-14T20:38:14;9.07;;;5.07;;
40695;SDS011;40425;51.102;17.208;2023-05-14T20:43:17;8.10;;;5.47;;
40695;SDS011;40425;51.102;17.208;2023-05-14T20:48:18;5.05;;;4.55;;
40695;SDS011;40425;51.102;17.208;2023-05-14T20:53:20;6.22;;;5.00;;
40695;SDS011;40425;51.102;17.208;2023-05-14T20:58:21;7.05;;;5.68;;
40695;SDS011;40425;51.102;17.208;2023-05-14T21:03:22;8.50;;;5.32;;
40695;SDS011;40425;51.102;17.208;2023-05-14T21:08:22;9.02;;;6.15;;
40695;SDS011;40425;51.102;17.208;2023-05-14T21:13:23;11.65;;;8.70;;
40695;SDS011;40425;51.102;17.208;2023-05-14T21:18:24;5.78;;;4.65;;
40695;SDS011;40425;51.102;17.208;2023-05-14T21:23:26;8.73;;;6.78;;
40695;SDS011;40425;51.102;17.208;2023-05-14T21:28:26;12.40;;;8.32;;
40695;SDS011;40425;51.102;17.208;2023-05-14T21:33:27;6.55;;;5.95;;
40695;SDS011;40425;51.102;17.208;2023-05-14T21:38:28;7.38;;;5.65;;
40695;SDS011;40425;51.102;17.208;2023-05-14T21:43:30;7.55;;;6.13;;
40695;SDS011;40425;51.102;17.208;2023-05-14T21:48:31;6.40;;;5.78;;
40695;SDS011;40425;51.102;17.208;2023-05-14T21:53:32;11.02;;;9.02;;
40695;SDS011;40425;51.102;17.208;2023-05-14T21:58:34;13.75;;;8.23;;
40695;SDS011;40425;51.102;17.208;2023-05-14T22:03:35;11.40;;;9.25;;
40695;SDS011;40425;51.102;17.208;2023-05-14T22:08:36;9.43;;;8.40;;
40695;SDS011;40425;51.102;17.208;2023-05-14T22:13:37;9.15;;;8.25;;
40695;SDS011;40425;51.102;17.208;2023-05-14T22:18:40;11.52;;;8.60;;
40695;SDS011;40425;51.102;17.208;2023-05-14T22:23:41;7.80;;;6.82;;
40695;SDS011;40425;51.102;17.208;2023-05-14T22:28:42;8.85;;;7.88;;
40695;SDS011;40425;51.102;17.208;2023-05-14T22:33:43;9.73;;;7.55;;
40695;SDS011;40425;51.102;17.208;2023-05-14T22:38:44;8.57;;;7.07;;
40695;SDS011;40425;51.102;17.208;2023-05-14T22:43:45;10.55;;;7.78;;
40695;SDS011;40425;51.102;17.208;2023-05-14T22:48:47;8.57;;;7.18;;
40695;SDS011;40425;51.102;17.208;2023-05-14T22:53:48;8.60;;;7.28;;
40695;SDS011;40425;51.102;17.208;2023-05-14T22:58:49;10.02;;;7.47;;
40695;SDS011;40425;51.102;17.208;2023-05-14T23:03:50;10.02;;;8.38;;
40695;SDS011;40425;51.102;17.208;2023-05-14T23:08:51;10.10;;;8.20;;
40695;SDS011;40425;51.102;17.208;2023-05-14T23:13:52;13.77;;;7.75;;
40695;SDS011;40425;51.102;17.208;2023-05-14T23:18:53;9.75;;;8.75;;
40695;SDS011;40425;51.102;17.208;2023-05-14T23:23:54;9.80;;;7.97;;
40695;SDS011;40425;51.102;17.208;2023-05-14T23:28:54;8.98;;;8.15;;
40695;SDS011;40425;51.102;17.208;2023-05-14T23:33:55;9.25;;;7.82;;
40695;SDS011;40425;51.102;17.208;2023-05-14T23:38:57;9.98;;;8.30;;
40695;SDS011;40425;51.102;17.208;2023-05-14T23:43:58;8.50;;;7.32;;
40695;SDS011;40425;51.102;17.208;2023-05-14T23:48:59;7.85;;;7.05;;
40695;SDS011;40425;51.102;17.208;2023-05-14T23:54:00;9.48;;;8.02;;
40695;SDS011;40425;51.102;17.208;2023-05-14T23:59:02;11.73;;;10.52;;
